Time;durP1;ratioP1;P1;durP2;ratioP2;P2;SDS_P1;SDS_P2;PMS_P1;PMS_P2;Temp;Humidity;BMP_temperature;BMP_pressure;BME280_temperature;BME280_humidity;BME280_pressure;Samples;Min_cycle;Max_cycle;Signal;HPM_P1;HPM_P2
2022/08/22 00:02:28;;;;;;;;;;;16.60;99.90;;;;;;6175083;23;20013;-90
2022/08/22 00:05:30;;;;;;;10.25;3.33;;;16.50;99.90;;;;;;6176425;23;20294;-90
2022/08/22 00:08:02;;;;;;;9.70;3.10;;;16.50;99.90;;;;;;6182699;22;20074;-90
2022/08/22 00:10:50;;;;;;;6.63;2.85;;;16.50;99.90;;;;;;6176615;22;20768;-90
2022/08/22 00:13:52;;;;;;;10.13;3.03;;;16.40;99.90;;;;;;6174750;23;20341;-89
2022/08/22 00:17:04;;;;;;;11.88;3.40;;;16.40;99.90;;;;;;6175905;23;20092;-89
2022/08/22 00:19:58;;;;;;;8.10;2.85;;;16.40;99.90;;;;;;6174362;23;20487;-89
2022/08/22 00:22:53;;;;;;;10.65;3.42;;;16.40;99.90;;;;;;6176810;23;20021;-89
2022/08/22 00:26:03;;;;;;;11.50;3.15;;;16.40;99.90;;;;;;6176924;23;20068;-89
2022/08/22 00:28:35;;;;;;;11.45;4.05;;;16.40;99.90;;;;;;6230064;22;20015;-90
2022/08/22 00:31:10;;;;;;;8.65;3.05;;;16.30;99.90;;;;;;6274862;22;20095;-88
2022/08/22 00:33:55;;;;;;;7.70;3.15;;;16.30;99.90;;;;;;6303466;22;20011;-89
2022/08/22 00:36:46;;;;;;;8.30;2.72;;;16.30;99.90;;;;;;6275862;22;20090;-89
2022/08/22 00:39:21;;;;;;;8.50;3.53;;;16.30;99.90;;;;;;6275676;22;20033;-88
2022/08/22 00:42:13;;;;;;;7.38;2.90;;;16.30;99.90;;;;;;6274846;22;20019;-90
2022/08/22 00:45:07;;;;;;;8.18;2.88;;;16.30;99.90;;;;;;6274722;22;20316;-89
2022/08/22 00:47:50;;;;;;;6.07;3.00;;;16.30;99.90;;;;;;6275029;22;20066;-89
2022/08/22 00:50:27;;;;;;;6.72;3.17;;;16.30;99.90;;;;;;6249488;22;20022;-90
2022/08/22 00:52:59;;;;;;;8.55;3.33;;;16.30;99.90;;;;;;6302756;22;20030;-90
2022/08/22 00:56:02;;;;;;;8.93;2.63;;;16.20;99.90;;;;;;6275625;22;20102;-89
2022/08/22 00:58:41;;;;;;;9.15;3.50;;;16.30;99.90;;;;;;6302732;22;20015;-89
2022/08/22 01:01:10;;;;;;;7.95;3.25;;;16.30;99.90;;;;;;6274565;22;20025;-89
2022/08/22 01:03:45;;;;;;;7.18;2.95;;;16.20;99.90;;;;;;6302304;22;20110;-89
2022/08/22 01:06:27;;;;;;;6.53;2.78;;;16.50;99.90;;;;;;6275195;22;20015;-90
2022/08/22 01:09:28;;;;;;;8.90;3.15;;;16.20;99.90;;;;;;6275203;22;20436;-89
2022/08/22 01:12:28;;;;;;;8.98;3.35;;;16.20;99.90;;;;;;6274541;22;20459;-90
2022/08/22 01:15:04;;;;;;;8.95;3.28;;;16.20;99.90;;;;;;6274297;22;20072;-89
2022/08/22 01:17:50;;;;;;;8.60;2.90;;;16.20;99.90;;;;;;6275590;22;20050;-90
2022/08/22 01:20:28;;;;;;;7.10;3.08;;;16.20;99.90;;;;;;6249617;22;20026;-88
2022/08/22 01:23:12;;;;;;;9.63;3.17;;;16.30;99.90;;;;;;6301636;22;20444;-89
2022/08/22 01:26:20;;;;;;;7.25;2.88;;;16.20;99.90;;;;;;6275278;22;20019;-89
2022/08/22 01:29:24;;;;;;;11.65;3.30;;;16.20;99.90;;;;;;6280705;22;20023;-89
2022/08/22 01:32:01;;;;;;;9.70;2.95;;;16.20;99.90;;;;;;6122678;23;20018;-90
2022/08/22 01:34:51;;;;;;;8.68;3.30;;;16.20;99.90;;;;;;6123285;23;20356;-90
2022/08/22 01:37:44;;;;;;;8.00;3.10;;;16.20;99.90;;;;;;6123176;23;20025;-90
2022/08/22 01:40:28;;;;;;;6.40;2.78;;;16.20;99.90;;;;;;6123064;23;20021;-90
2022/08/22 01:43:17;;;;;;;9.88;3.28;;;16.20;99.90;;;;;;6122080;23;20041;-90
2022/08/22 01:46:17;;;;;;;6.97;3.50;;;16.30;99.90;;;;;;6098196;23;20017;-91
2022/08/22 01:48:46;;;;;;;8.80;3.47;;;16.20;99.90;;;;;;6113880;23;20157;-90
2022/08/22 01:51:39;;;;;;;6.63;2.65;;;16.20;99.90;;;;;;6098566;23;20013;-90
2022/08/22 01:54:28;;;;;;;9.15;3.53;;;16.30;99.90;;;;;;6122750;23;20029;-91
2022/08/22 01:57:03;;;;;;;8.68;3.22;;;16.20;99.90;;;;;;6147045;23;20024;-91
2022/08/22 01:59:36;;;;;;;;;;;16.20;99.90;;;;;;6123101;23;20348;-90
2022/08/22 02:02:11;;;;;;;7.88;3.47;;;16.20;99.90;;;;;;6162988;22;20372;-91
2022/08/22 02:04:40;;;;;;;8.88;3.50;;;16.20;99.90;;;;;;6301929;22;20021;-90
2022/08/22 02:07:22;;;;;;;9.82;3.33;;;16.20;99.90;;;;;;6301974;22;20015;-91
2022/08/22 02:10:28;;;;;;;9.35;3.47;;;16.20;99.90;;;;;;6274384;22;20436;-90
2022/08/22 02:13:38;;;;;;;7.95;2.92;;;16.20;99.90;;;;;;6301676;22;20042;-90
2022/08/22 02:16:11;;;;;;;6.72;3.10;;;16.10;99.90;;;;;;6302269;22;20336;-90
2022/08/22 02:18:45;;;;;;;10.00;3.10;;;16.10;99.90;;;;;;6274312;22;20015;-90
2022/08/22 02:21:30;;;;;;;6.10;2.85;;;16.20;99.90;;;;;;6302423;22;20068;-90
2022/08/22 02:24:01;;;;;;;7.13;3.08;;;16.10;99.90;;;;;;6274454;22;20091;-90
2022/08/22 02:26:41;;;;;;;8.93;2.75;;;16.00;99.90;;;;;;6302117;22;20022;-90
2022/08/22 02:29:10;;;;;;;8.32;2.97;;;16.00;99.90;;;;;;6301353;22;20019;-90
2022/08/22 02:31:39;;;;;;;8.07;3.13;;;15.90;99.90;;;;;;6301868;22;20064;-90
2022/08/22 02:34:48;;;;;;;7.75;3.30;;;15.90;99.90;;;;;;6273993;22;20137;-90
2022/08/22 02:37:20;;;;;;;8.70;3.20;;;15.90;99.90;;;;;;6274507;22;20034;-91
2022/08/22 02:40:08;;;;;;;6.60;3.30;;;15.80;99.90;;;;;;6301473;22;20008;-90
2022/08/22 02:43:06;;;;;;;8.63;2.97;;;15.80;99.90;;;;;;6273173;22;20019;-90
2022/08/22 02:45:53;;;;;;;6.55;3.10;;;15.80;99.90;;;;;;6277038;22;20312;-91
2022/08/22 02:48:18;;;;;;;7.65;3.28;;;15.80;99.90;;;;;;6250751;22;20102;-90
2022/08/22 02:51:08;;;;;;;10.68;3.83;;;15.80;99.90;;;;;;6303996;22;20112;-90
2022/08/22 02:54:00;;;;;;;8.80;3.28;;;15.70;99.90;;;;;;6303852;22;20023;-91
2022/08/22 02:56:33;;;;;;;6.65;3.00;;;15.70;99.90;;;;;;6251591;22;20026;-90
2022/08/22 02:59:23;;;;;;;6.25;2.75;;;15.60;99.90;;;;;;6278250;22;20090;-90
2022/08/22 03:01:50;;;;;;;5.88;2.55;;;15.60;99.90;;;;;;6275941;22;20443;-90
2022/08/22 03:04:45;;;;;;;7.00;3.30;;;15.50;99.90;;;;;;6276291;22;20019;-90
2022/08/22 03:07:26;;;;;;;9.75;3.17;;;15.50;99.90;;;;;;6303959;22;20035;-90
2022/08/22 03:10:09;;;;;;;8.80;3.00;;;15.50;99.90;;;;;;6303068;22;20022;-90
2022/08/22 03:13:07;;;;;;;8.95;3.00;;;15.50;99.90;;;;;;6277523;22;20023;-90
2022/08/22 03:15:36;;;;;;;8.50;3.38;;;15.40;99.90;;;;;;6305220;22;20336;-91
2022/08/22 03:18:15;;;;;;;9.68;3.38;;;15.40;99.90;;;;;;6304195;22;20019;-90
2022/08/22 03:20:50;;;;;;;9.27;3.25;;;15.40;99.90;;;;;;6276106;22;20018;-91
2022/08/22 03:23:26;;;;;;;9.15;3.30;;;15.30;99.90;;;;;;6276241;22;20565;-90
2022/08/22 03:26:06;;;;;;;8.38;3.50;;;15.30;99.90;;;;;;6275117;22;20452;-90
2022/08/22 03:28:50;;;;;;;7.63;2.70;;;15.30;99.90;;;;;;6303261;22;20086;-91
2022/08/22 03:31:19;;;;;;;9.38;3.85;;;15.30;99.90;;;;;;6304109;22;20016;-90
2022/08/22 03:34:05;;;;;;;9.02;2.97;;;15.30;99.90;;;;;;6275778;22;20339;-90
2022/08/22 03:36:31;;;;;;;10.35;3.13;;;15.20;99.90;;;;;;6276006;22;20047;-89
2022/08/22 03:39:16;;;;;;;6.72;2.83;;;15.20;99.90;;;;;;6275208;22;20019;-89
2022/08/22 03:42:23;;;;;;;8.88;3.05;;;15.20;99.90;;;;;;6275872;22;20026;-90
2022/08/22 03:45:08;;;;;;;8.20;3.60;;;15.20;99.90;;;;;;6302743;22;20520;-90
2022/08/22 03:48:10;;;;;;;7.72;3.75;;;15.20;99.90;;;;;;6303308;22;20015;-89
2022/08/22 03:50:53;;;;;;;7.68;3.60;;;15.20;99.90;;;;;;6250028;22;20011;-89
2022/08/22 03:53:47;;;;;;;9.60;3.75;;;15.20;99.90;;;;;;6303070;22;20026;-90
2022/08/22 03:56:43;;;;;;;9.00;3.40;;;15.30;99.90;;;;;;6302878;22;20058;-91
2022/08/22 03:59:36;;;;;;;8.30;3.33;;;15.30;99.90;;;;;;6275560;22;20050;-89
2022/08/22 04:02:13;;;;;;;7.72;3.58;;;15.30;99.90;;;;;;6304065;22;20034;-90
2022/08/22 04:05:14;;;;;;;7.95;3.15;;;15.30;99.90;;;;;;6275113;22;20051;-90
2022/08/22 04:07:44;;;;;;;5.38;2.58;;;15.30;99.90;;;;;;6275203;22;20018;-90
2022/08/22 04:10:34;;;;;;;7.25;3.33;;;15.30;99.90;;;;;;6275594;22;20407;-90
2022/08/22 04:13:27;;;;;;;6.57;3.38;;;15.30;99.90;;;;;;6250127;22;20012;-90
2022/08/22 04:16:14;;;;;;;7.32;2.75;;;15.30;99.90;;;;;;6275467;22;20023;-90
2022/08/22 04:19:06;;;;;;;7.25;3.58;;;15.30;99.90;;;;;;6275466;22;20027;-90
2022/08/22 04:21:54;;;;;;;6.50;3.35;;;15.30;99.90;;;;;;6303497;22;20019;-89
2022/08/22 04:24:38;;;;;;;7.32;2.90;;;15.40;99.90;;;;;;6302761;22;20011;-90
2022/08/22 04:27:16;;;;;;;7.07;2.90;;;15.40;99.90;;;;;;6275709;22;20110;-90
2022/08/22 04:29:58;;;;;;;7.57;3.25;;;15.40;99.90;;;;;;6192126;22;20056;-89
2022/08/22 04:32:29;;;;;;;7.55;3.30;;;15.40;99.90;;;;;;6176956;23;20025;-90
2022/08/22 04:34:55;;;;;;;10.43;3.50;;;15.40;99.90;;;;;;6176072;22;20020;-89
2022/08/22 04:37:31;;;;;;;10.20;3.30;;;15.30;99.90;;;;;;6176316;22;20013;-90
2022/08/22 04:40:19;;;;;;;8.13;3.42;;;15.30;99.90;;;;;;6176573;23;20062;-90
2022/08/22 04:42:52;;;;;;;8.45;3.55;;;15.40;99.90;;;;;;6174336;22;20017;-90
2022/08/22 04:45:40;;;;;;;10.60;3.70;;;15.40;99.90;;;;;;6174652;23;20013;-90
2022/08/22 04:48:28;;;;;;;10.43;3.20;;;15.40;99.90;;;;;;6176286;23;20103;-90
2022/08/22 04:51:02;;;;;;;8.95;3.42;;;15.40;99.90;;;;;;6174364;23;20096;-90
2022/08/22 04:53:44;;;;;;;6.50;2.90;;;15.40;99.90;;;;;;6176038;23;20096;-90
2022/08/22 04:56:35;;;;;;;8.20;3.05;;;15.40;99.90;;;;;;6176679;23;20055;-90
2022/08/22 04:59:11;;;;;;;6.13;3.22;;;15.30;99.90;;;;;;6174916;23;20413;-90
2022/08/22 05:01:43;;;;;;;8.20;3.38;;;15.30;99.90;;;;;;6175842;23;20510;-90
2022/08/22 05:04:19;;;;;;;7.57;3.30;;;15.50;99.90;;;;;;6150384;23;20096;-90
2022/08/22 05:06:57;;;;;;;7.72;3.42;;;15.40;99.90;;;;;;6174032;23;20013;-90
2022/08/22 05:09:29;;;;;;;9.25;4.07;;;15.40;99.90;;;;;;6174654;23;20052;-90
2022/08/22 05:12:03;;;;;;;8.45;3.85;;;15.80;99.90;;;;;;6174271;23;20396;-90
2022/08/22 05:14:38;;;;;;;7.32;3.47;;;15.40;99.90;;;;;;6175258;23;20013;-90
2022/08/22 05:17:08;;;;;;;7.43;3.70;;;15.40;99.90;;;;;;6174807;23;20024;-91
2022/08/22 05:19:39;;;;;;;8.65;3.78;;;15.40;99.90;;;;;;6174215;23;20021;-91
2022/08/22 05:22:12;;;;;;;9.50;3.65;;;15.40;99.90;;;;;;6173715;23;20033;-90
2022/08/22 05:24:43;;;;;;;7.03;3.27;;;15.50;99.90;;;;;;6176305;23;20071;-90
2022/08/22 05:27:13;;;;;;;6.30;2.85;;;15.50;99.90;;;;;;6176449;23;20020;-91
2022/08/22 05:29:44;;;;;;;8.98;3.60;;;15.50;99.90;;;;;;6275584;22;20020;-91
2022/08/22 05:32:40;;;;;;;7.38;3.30;;;15.50;99.90;;;;;;6274856;22;20054;-90
2022/08/22 05:35:08;;;;;;;8.27;3.97;;;15.50;99.90;;;;;;6274501;22;20015;-91
2022/08/22 05:37:53;;;;;;;6.70;3.80;;;16.00;99.90;;;;;;6302451;22;20075;-90
2022/08/22 05:40:26;;;;;;;7.55;3.63;;;15.60;99.90;;;;;;6302334;22;20366;-90
2022/08/22 05:42:55;;;;;;;7.53;3.58;;;15.70;99.90;;;;;;6301911;22;20015;-90
2022/08/22 05:45:21;;;;;;;7.22;4.32;;;15.70;99.90;;;;;;6302465;22;20007;-90
2022/08/22 05:47:57;;;;;;;8.52;4.40;;;16.00;99.90;;;;;;6301823;22;20022;-91
2022/08/22 05:50:35;;;;;;;8.63;3.88;;;15.80;99.90;;;;;;6302062;22;20015;-90
2022/08/22 05:53:16;;;;;;;9.23;4.75;;;15.70;99.90;;;;;;6302630;22;20339;-91
2022/08/22 05:56:00;;;;;;;7.75;4.47;;;15.80;99.90;;;;;;6301935;22;20094;-90
2022/08/22 05:58:38;;;;;;;8.07;5.10;;;15.80;99.90;;;;;;6275283;22;20045;-92
2022/08/22 06:01:07;;;;;;;15.20;5.82;;;15.90;99.90;;;;;;6302018;22;20452;-90
2022/08/22 06:03:41;;;;;;;10.77;5.57;;;15.90;99.90;;;;;;6274210;22;20340;-90
2022/08/22 06:06:15;;;;;;;12.77;5.85;;;16.10;99.90;;;;;;6274663;22;20011;-90
2022/08/22 06:08:52;;;;;;;11.37;5.50;;;16.00;99.90;;;;;;6248788;22;20019;-90
2022/08/22 06:11:24;;;;;;;11.55;5.30;;;16.10;99.90;;;;;;6304381;22;20344;-90
2022/08/22 06:14:05;;;;;;;11.65;5.88;;;16.10;99.90;;;;;;6304358;22;20019;-89
2022/08/22 06:16:45;;;;;;;12.77;5.88;;;16.60;99.90;;;;;;6274406;22;20015;-90
2022/08/22 06:19:18;;;;;;;12.57;5.50;;;16.40;99.90;;;;;;6301637;22;20096;-90
2022/08/22 06:21:48;;;;;;;10.35;5.72;;;16.50;99.90;;;;;;6274289;22;20113;-90
2022/08/22 06:24:21;;;;;;;12.27;5.85;;;16.60;99.90;;;;;;6275180;22;20064;-90
2022/08/22 06:26:50;;;;;;;16.10;5.32;;;16.70;99.90;;;;;;6275553;22;20011;-90
2022/08/22 06:29:36;;;;;;;9.52;5.38;;;16.70;99.90;;;;;;6210143;22;20024;-90
2022/08/22 06:32:10;;;;;;;11.52;4.95;;;16.80;99.90;;;;;;6176194;23;20388;-90
2022/08/22 06:34:43;;;;;;;12.13;4.30;;;16.90;99.90;;;;;;6175355;23;20024;-90
2022/08/22 06:37:16;;;;;;;13.45;4.53;;;17.00;99.90;;;;;;6174830;23;20096;-90
2022/08/22 06:39:47;;;;;;;14.00;4.65;;;17.00;99.90;;;;;;6175602;23;20345;-91
2022/08/22 06:42:17;;;;;;;11.10;4.63;;;17.20;99.90;;;;;;6175928;23;20092;-90
2022/08/22 06:44:56;;;;;;;10.50;3.85;;;17.20;99.90;;;;;;6174154;23;20021;-91
2022/08/22 06:47:26;;;;;;;11.63;5.13;;;17.60;99.90;;;;;;6173505;23;20025;-89
2022/08/22 06:49:58;;;;;;;11.82;4.50;;;17.40;99.90;;;;;;6175250;23;20528;-90
2022/08/22 06:52:27;;;;;;;12.20;3.83;;;17.40;99.90;;;;;;6173995;23;20021;-90
2022/08/22 06:55:05;;;;;;;10.73;4.18;;;17.50;99.90;;;;;;6175677;23;20329;-90
2022/08/22 06:57:41;;;;;;;10.75;4.38;;;17.60;99.90;;;;;;6173935;23;20016;-89
2022/08/22 07:00:12;;;;;;;11.85;4.13;;;17.60;99.90;;;;;;6176132;23;20375;-90
2022/08/22 07:02:45;;;;;;;11.77;4.47;;;17.70;99.90;;;;;;6173180;23;20070;-90
2022/08/22 07:05:24;;;;;;;14.15;4.70;;;17.80;99.90;;;;;;6174332;23;20017;-90
2022/08/22 07:07:51;;;;;;;12.90;4.72;;;17.80;99.90;;;;;;6175254;23;20256;-90
2022/08/22 07:10:20;;;;;;;9.57;3.80;;;17.90;99.90;;;;;;6175747;23;20371;-90
2022/08/22 07:12:50;;;;;;;11.05;4.60;;;17.90;99.90;;;;;;6173303;23;20441;-91
2022/08/22 07:15:34;;;;;;;9.15;3.95;;;18.00;99.90;;;;;;6175877;23;20009;-90
2022/08/22 07:18:06;;;;;;;11.23;4.93;;;18.40;99.90;;;;;;6174701;23;20045;-90
2022/08/22 07:20:40;;;;;;;10.77;4.53;;;18.20;99.90;;;;;;6175674;23;20453;-90
2022/08/22 07:23:11;;;;;;;;;;;18.10;99.90;;;;;;6173891;23;20021;-89
2022/08/22 07:26:15;;;;;;;12.48;5.47;;;18.20;99.90;;;;;;6172992;23;19912;-90
2022/08/22 07:29:04;;;;;;;17.20;5.57;;;18.20;99.90;;;;;;6172458;23;20025;-90
2022/08/22 07:31:36;;;;;;;11.82;4.75;;;18.30;99.90;;;;;;6149557;23;20021;-91
2022/08/22 07:34:41;;;;;;;17.67;5.47;;;18.30;99.90;;;;;;6176951;23;20017;-90
2022/08/22 07:37:36;;;;;;;11.63;5.88;;;18.40;99.90;;;;;;6174645;23;20017;-90
2022/08/22 07:40:22;;;;;;;14.68;5.43;;;18.50;99.90;;;;;;6176996;23;20049;-90
2022/08/22 07:43:03;;;;;;;15.18;6.05;;;18.50;99.90;;;;;;6175014;22;20075;-90
2022/08/22 07:45:48;;;;;;;13.80;5.28;;;18.60;99.90;;;;;;6176433;22;20025;-90
2022/08/22 07:48:16;;;;;;;13.32;6.47;;;18.70;99.90;;;;;;6176396;23;20029;-89
2022/08/22 07:51:06;;;;;;;19.45;6.50;;;19.00;99.90;;;;;;6174561;22;20146;-91
2022/08/22 07:53:46;;;;;;;16.02;6.15;;;18.80;99.90;;;;;;6177049;23;20051;-90
2022/08/22 07:56:18;;;;;;;18.30;6.30;;;18.90;99.90;;;;;;6175100;23;20017;-91
2022/08/22 07:58:48;;;;;;;17.17;6.70;;;18.90;99.90;;;;;;6174556;23;20029;-90
2022/08/22 08:01:18;;;;;;;14.63;5.93;;;19.10;99.90;;;;;;6173960;23;20469;-90
2022/08/22 08:03:51;;;;;;;11.77;5.28;;;19.00;99.90;;;;;;6176121;23;20017;-90
2022/08/22 08:06:21;;;;;;;14.60;5.00;;;19.10;99.90;;;;;;6175220;23;20401;-90
2022/08/22 08:08:49;;;;;;;14.90;5.47;;;19.20;99.90;;;;;;6176296;23;20379;-90
2022/08/22 08:11:17;;;;;;;10.57;4.63;;;19.30;99.90;;;;;;6177029;23;20017;-90
2022/08/22 08:13:46;;;;;;;13.23;4.40;;;19.40;99.90;;;;;;6149651;23;20024;-90
2022/08/22 08:16:25;;;;;;;10.57;3.50;;;19.50;99.90;;;;;;6176014;23;20050;-90
2022/08/22 08:18:55;;;;;;;16.05;3.78;;;19.70;99.90;;;;;;6174575;23;20339;-90
2022/08/22 08:21:42;;;;;;;10.60;3.38;;;19.70;99.90;;;;;;6150273;23;20437;-91
2022/08/22 08:24:12;;;;;;;12.15;3.42;;;19.80;99.90;;;;;;6174445;23;20519;-90
2022/08/22 08:28:32;;;;;;;10.63;3.50;;;19.90;99.90;;;;;;6176089;23;20021;-90
2022/08/22 08:29:29;;;;;;;12.52;3.15;;;20.00;99.90;;;;;;6173714;23;20025;-91
2022/08/22 08:31:56;;;;;;;11.38;2.83;;;20.10;99.90;;;;;;6175944;23;20090;-90
2022/08/22 08:34:24;;;;;;;9.82;2.55;;;20.20;99.90;;;;;;6174616;23;20017;-91
2022/08/22 08:36:53;;;;;;;12.07;3.05;;;20.30;99.90;;;;;;6175957;23;20461;-91
2022/08/22 08:39:32;;;;;;;8.23;3.15;;;20.30;99.90;;;;;;6174588;23;20021;-90
2022/08/22 08:42:23;;;;;;;10.02;3.40;;;20.50;99.90;;;;;;6174631;23;20465;-90
2022/08/22 08:45:06;;;;;;;8.07;2.88;;;20.60;99.90;;;;;;6175664;23;20025;-91
2022/08/22 08:47:45;;;;;;;10.05;2.53;;;20.60;99.90;;;;;;6174801;23;20021;-90
2022/08/22 08:50:25;;;;;;;8.63;2.08;;;20.70;99.90;;;;;;6176678;23;20387;-90
2022/08/22 08:53:09;;;;;;;13.13;2.90;;;20.70;99.90;;;;;;6174465;23;20094;-90
2022/08/22 08:55:55;;;;;;;13.13;2.70;;;20.90;99.90;;;;;;6149576;23;20047;-91
2022/08/22 08:58:48;;;;;;;10.65;3.05;;;20.90;99.90;;;;;;6148962;23;20318;-91
2022/08/22 09:01:31;;;;;;;12.65;2.40;;;21.00;99.90;;;;;;6176483;22;20051;-91
2022/08/22 09:04:12;;;;;;;7.78;2.28;;;21.20;99.90;;;;;;6173725;23;20028;-91
2022/08/22 09:07:17;;;;;;;8.88;2.30;;;21.40;99.90;;;;;;6174871;22;20021;-90
2022/08/22 09:09:43;;;;;;;;;;;21.50;99.90;;;;;;6174981;23;20447;-90
2022/08/22 09:12:36;;;;;;;10.48;2.38;;;21.50;99.90;;;;;;6174279;23;19921;-91
2022/08/22 09:15:30;;;;;;;11.25;3.15;;;21.80;99.90;;;;;;6176430;22;20021;-91
2022/08/22 09:18:27;;;;;;;16.35;2.85;;;21.90;99.90;;;;;;6149557;23;20021;-91
2022/08/22 09:21:09;;;;;;;15.88;2.80;;;22.00;99.90;;;;;;6174009;22;20025;-90
2022/08/22 09:24:04;;;;;;;9.90;2.70;;;22.10;99.90;;;;;;6175067;22;20030;-90
2022/08/22 09:26:48;;;;;;;;;;;22.10;99.90;;;;;;6176606;23;20088;-90
2022/08/22 09:29:52;;;;;;;9.35;2.42;;;22.10;99.90;;;;;;6174719;23;19924;-90
2022/08/22 09:32:27;;;;;;;11.18;2.10;;;22.20;99.90;;;;;;6150314;23;20453;-90
2022/08/22 09:35:17;;;;;;;12.02;2.15;;;22.00;99.90;;;;;;6174137;23;20483;-90
2022/08/22 09:37:52;;;;;;;12.63;2.72;;;22.20;99.90;;;;;;6174506;23;20327;-90
2022/08/22 09:40:36;;;;;;;8.90;2.25;;;22.20;99.90;;;;;;6150139;22;20017;-91
2022/08/22 09:43:08;;;;;;;10.13;2.80;;;22.10;99.90;;;;;;6173890;23;20088;-91
2022/08/22 09:45:46;;;;;;;9.98;2.50;;;22.10;99.90;;;;;;6174796;23;20021;-90
2022/08/22 09:48:22;;;;;;;11.45;2.92;;;22.00;99.90;;;;;;6176101;22;20021;-90
2022/08/22 09:51:03;;;;;;;9.20;2.45;;;22.10;99.90;;;;;;6173815;23;20345;-91
2022/08/22 09:53:48;;;;;;;12.00;3.30;;;22.30;99.90;;;;;;6173882;22;20021;-90
2022/08/22 09:56:29;;;;;;;11.10;2.60;;;22.40;99.90;;;;;;6173668;23;20021;-91
2022/08/22 09:59:02;;;;;;;12.55;2.35;;;22.60;99.90;;;;;;6174530;22;20111;-91
2022/08/22 10:01:51;;;;;;;11.13;2.80;;;22.90;99.90;;;;;;6174516;23;20429;-91
2022/08/22 10:04:28;;;;;;;11.13;2.67;;;22.90;99.90;;;;;;6176464;23;20329;-91
2022/08/22 10:06:57;;;;;;;10.05;2.13;;;22.90;99.90;;;;;;6149823;23;20017;-91
2022/08/22 10:09:27;;;;;;;12.05;2.53;;;22.90;99.90;;;;;;6174071;22;20666;-90
2022/08/22 10:12:02;;;;;;;11.88;2.30;;;22.90;99.90;;;;;;6175417;23;20052;-91
2022/08/22 10:14:55;;;;;;;9.23;2.60;;;22.70;99.90;;;;;;6174393;23;20017;-91
2022/08/22 10:17:37;;;;;;;9.30;2.58;;;22.60;99.90;;;;;;6174201;22;20035;-90
2022/08/22 10:20:12;;;;;;;12.55;2.72;;;22.60;99.90;;;;;;6174204;23;20496;-90
2022/08/22 10:22:54;;;;;;;11.30;2.25;;;22.50;99.90;;;;;;6174295;23;20013;-91
2022/08/22 10:25:29;;;;;;;11.00;2.28;;;22.60;99.90;;;;;;6173349;23;20445;-90
2022/08/22 10:28:11;;;;;;;10.88;2.70;;;22.60;99.90;;;;;;6182738;22;20345;-90
2022/08/22 10:30:53;;;;;;;7.88;2.50;;;22.60;99.90;;;;;;6273808;22;20443;-91
2022/08/22 10:33:32;;;;;;;8.45;2.13;;;22.70;99.90;;;;;;6275009;22;20023;-91
2022/08/22 10:36:06;;;;;;;6.28;2.25;;;22.70;99.90;;;;;;6275025;22;20016;-91
2022/08/22 10:38:44;;;;;;;11.77;2.35;;;22.80;99.90;;;;;;6274737;22;20011;-91
2022/08/22 10:41:20;;;;;;;10.15;2.28;;;22.90;99.90;;;;;;6301716;22;20088;-89
2022/08/22 10:44:15;;;;;;;9.48;3.00;;;23.00;99.90;;;;;;6274134;22;20510;-91
2022/08/22 10:46:56;;;;;;;11.18;2.20;;;23.00;99.90;;;;;;6274404;22;20104;-90
2022/08/22 10:49:39;;;;;;;8.80;2.63;;;23.10;99.90;;;;;;6274150;22;20440;-90
2022/08/22 10:52:13;;;;;;;8.32;2.03;;;23.20;99.90;;;;;;6302053;22;20348;-91
2022/08/22 10:54:53;;;;;;;12.10;2.40;;;23.20;99.90;;;;;;6273305;22;20454;-91
2022/08/22 10:57:31;;;;;;;9.35;2.03;;;23.30;99.90;;;;;;6249083;22;20356;-92
2022/08/22 11:00:24;;;;;;;8.63;2.80;;;23.40;99.90;;;;;;6301568;22;20034;-92
2022/08/22 11:02:52;;;;;;;8.90;2.40;;;23.40;99.90;;;;;;6274370;22;20094;-90
2022/08/22 11:05:38;;;;;;;10.30;2.30;;;23.50;99.90;;;;;;6275454;22;20451;-91
2022/08/22 11:08:10;;;;;;;11.30;2.60;;;23.60;99.90;;;;;;6250375;22;20034;-91
2022/08/22 11:11:00;;;;;;;18.05;2.78;;;23.60;99.90;;;;;;6303836;22;20359;-90
2022/08/22 11:13:55;;;;;;;12.35;2.53;;;23.60;99.90;;;;;;6303899;22;20011;-91
2022/08/22 11:16:27;;;;;;;;;;;23.70;99.90;;;;;;6277187;22;20019;-91
2022/08/22 11:19:27;;;;;;;10.40;2.50;;;23.70;99.90;;;;;;6250979;22;20345;-91
2022/08/22 11:22:05;;;;;;;9.45;2.10;;;23.80;99.90;;;;;;6276127;22;20026;-90
2022/08/22 11:24:30;;;;;;;8.60;2.22;;;23.80;99.90;;;;;;6276165;22;20039;-89
2022/08/22 11:27:01;;;;;;;10.68;2.05;;;23.90;99.90;;;;;;6276371;22;20026;-91
2022/08/22 11:30:04;;;;;;;10.27;2.10;;;23.90;99.90;;;;;;6177917;23;20053;-91
2022/08/22 11:33:00;;;;;;;12.32;2.35;;;24.00;99.90;;;;;;6176416;23;20528;-91
2022/08/22 11:35:43;;;;;;;10.45;1.90;;;24.00;99.90;;;;;;6175482;23;20052;-91
2022/08/22 11:38:34;;;;;;;8.82;2.10;;;24.10;99.80;;;;;;6175824;23;20445;-92
2022/08/22 11:41:21;;;;;;;13.60;2.47;;;24.10;99.50;;;;;;6175143;23;20031;-91
2022/08/22 11:43:54;;;;;;;6.88;1.80;;;24.20;99.90;;;;;;6176428;23;20394;-91
2022/08/22 11:46:34;;;;;;;7.53;2.08;;;24.40;99.90;;;;;;6175046;23;20115;-92
2022/08/22 11:49:26;;;;;;;7.72;1.80;;;24.50;99.70;;;;;;6176674;23;20027;-91
2022/08/22 11:52:15;;;;;;;10.60;2.42;;;24.70;99.00;;;;;;6174364;23;20013;-91
2022/08/22 11:55:10;;;;;;;11.60;2.00;;;24.80;98.40;;;;;;6174933;23;20033;-91
2022/08/22 11:57:41;;;;;;;7.10;2.25;;;24.90;97.30;;;;;;6176226;23;20289;-91
2022/08/22 12:00:25;;;;;;;6.93;1.90;;;24.90;97.90;;;;;;6177158;23;20146;-91
2022/08/22 12:03:17;;;;;;;7.43;1.85;;;24.90;96.40;;;;;;6174588;23;20046;-91
2022/08/22 12:06:20;;;;;;;8.60;1.98;;;24.90;97.30;;;;;;6176523;23;20335;-91
2022/08/22 12:08:48;;;;;;;10.07;2.28;;;24.80;97.00;;;;;;6176141;23;20410;-91
2022/08/22 12:11:35;;;;;;;9.55;2.00;;;24.80;97.50;;;;;;6174872;23;20021;-91
2022/08/22 12:14:16;;;;;;;6.05;2.05;;;24.90;97.80;;;;;;6174794;23;20359;-91
2022/08/22 12:17:35;;;;;;;6.85;2.00;;;24.90;97.90;;;;;;6149280;23;20021;-91
2022/08/22 12:20:28;;;;;;;6.80;1.63;;;25.00;97.90;;;;;;6208318;23;20443;-91
2022/08/22 12:23:24;;;;;;;7.80;1.80;;;25.10;96.50;;;;;;6207001;23;20051;-91
2022/08/22 12:26:23;;;;;;;7.70;1.40;;;25.10;95.00;;;;;;6208139;23;20344;-90
2022/08/22 12:29:02;;;;;;;7.07;1.63;;;25.20;95.50;;;;;;6207888;23;20511;-91
2022/08/22 12:31:33;;;;;;;6.65;1.55;;;25.20;96.20;;;;;;6208383;23;20016;-91
2022/08/22 12:34:06;;;;;;;6.40;1.63;;;25.20;96.10;;;;;;6207965;23;20032;-91
2022/08/22 12:36:43;;;;;;;9.63;1.90;;;25.30;95.90;;;;;;6207794;23;20016;-91
2022/08/22 12:39:33;;;;;;;7.30;1.70;;;25.30;95.80;;;;;;6208372;23;20065;-91
2022/08/22 12:42:24;;;;;;;6.68;1.50;;;25.30;95.00;;;;;;6183213;23;20060;-91
2022/08/22 12:45:31;;;;;;;6.05;1.55;;;25.50;95.40;;;;;;6208322;23;20211;-91
2022/08/22 12:48:37;;;;;;;5.78;2.00;;;25.60;95.80;;;;;;6093821;23;20021;-91
2022/08/22 12:51:39;;;;;;;7.55;1.90;;;25.60;95.20;;;;;;6115818;23;20456;-91
2022/08/22 12:54:23;;;;;;;10.80;1.75;;;25.70;95.90;;;;;;6114128;23;20028;-92
2022/08/22 12:57:07;;;;;;;8.38;1.80;;;25.80;96.10;;;;;;6089341;23;20128;-91
2022/08/22 12:59:39;;;;;;;8.35;1.85;;;25.90;95.80;;;;;;6114654;23;20429;-92
2022/08/22 13:02:17;;;;;;;5.38;1.50;;;25.80;95.50;;;;;;6089786;23;20018;-91
2022/08/22 13:04:59;;;;;;;8.00;1.90;;;25.90;95.20;;;;;;6113187;23;20061;-92
2022/08/22 13:07:30;;;;;;;7.10;1.65;;;26.00;96.00;;;;;;6089387;23;20063;-91
2022/08/22 13:10:15;;;;;;;8.80;1.48;;;26.00;95.50;;;;;;6217249;23;20528;-91
2022/08/22 13:12:52;;;;;;;8.95;2.05;;;26.00;95.40;;;;;;6089282;23;20021;-91
2022/08/22 13:15:28;;;;;;;9.10;2.35;;;26.00;95.30;;;;;;6089849;23;20052;-91
2022/08/22 13:17:55;;;;;;;5.63;1.85;;;26.00;95.60;;;;;;6065014;23;20598;-92
2022/08/22 13:20:31;;;;;;;7.75;1.95;;;26.00;95.60;;;;;;6217390;23;20014;-91
2022/08/22 13:23:00;;;;;;;10.05;2.15;;;26.10;95.10;;;;;;6129247;23;20055;-91
2022/08/22 13:25:49;;;;;;;9.70;1.85;;;26.10;95.50;;;;;;6149908;23;20513;-91
2022/08/22 13:28:16;;;;;;;9.20;1.90;;;26.20;95.60;;;;;;6148416;23;20025;-92
2022/08/22 13:30:42;;;;;;;6.82;2.03;;;26.30;95.50;;;;;;6174475;23;20326;-91
2022/08/22 13:33:24;;;;;;;7.53;1.40;;;26.30;95.50;;;;;;6174629;23;20021;-92
2022/08/22 13:35:54;;;;;;;5.82;1.52;;;26.40;95.40;;;;;;6174477;23;20036;-90
2022/08/22 13:38:46;;;;;;;9.25;2.42;;;26.40;95.80;;;;;;6174982;23;20146;-92
2022/08/22 13:41:17;;;;;;;5.85;1.75;;;26.60;95.30;;;;;;6176683;23;20028;-92
2022/08/22 13:44:05;;;;;;;8.77;1.90;;;26.70;95.30;;;;;;6174141;23;20062;-91
2022/08/22 13:46:32;;;;;;;8.18;1.90;;;26.70;94.60;;;;;;6174765;22;20440;-91
2022/08/22 13:49:01;;;;;;;8.05;1.63;;;26.50;94.80;;;;;;6173812;23;20027;-91
2022/08/22 13:51:43;;;;;;;9.18;1.70;;;26.40;95.00;;;;;;6149851;23;20017;-91
2022/08/22 13:54:14;;;;;;;9.07;1.90;;;26.50;94.20;;;;;;6149593;23;20017;-92
2022/08/22 13:57:28;;;;;;;7.55;2.20;;;26.60;95.50;;;;;;6149673;22;20085;-92
2022/08/22 14:00:09;;;;;;;8.30;2.00;;;26.70;94.60;;;;;;6182036;23;20035;-91